Time;durP1;ratioP1;P1;durP2;ratioP2;P2;SDS_P1;SDS_P2;PMS_P1;PMS_P2;Temp;Humidity;BMP_temperature;BMP_pressure;BME280_temperature;BME280_humidity;BME280_pressure;Samples;Min_cycle;Max_cycle;Signal;HPM_P1;HPM_P2
2021/04/20 00:03:46;;;;;;;33.63;17.98;;;7.20;99.90;;;;;;6718728;88;20220;-78
2021/04/20 00:13:47;;;;;;;35.67;17.42;;;7.30;99.90;;;;;;6717755;88;20319;-78
2021/04/20 00:23:47;;;;;;;33.50;18.05;;;7.10;99.90;;;;;;6725345;88;20310;-79
2021/04/20 00:33:48;;;;;;;40.10;19.33;;;7.00;99.90;;;;;;6725931;77;20207;-77
2021/04/20 00:43:49;;;;;;;46.03;20.43;;;6.90;99.90;;;;;;6684412;88;21390;-76
2021/04/20 00:53:49;;;;;;;43.83;21.00;;;6.50;99.90;;;;;;6675127;88;20510;-76
2021/04/20 01:03:50;;;;;;;43.83;20.65;;;6.60;99.90;;;;;;6679896;89;21012;-77
2021/04/20 01:13:51;;;;;;;39.72;19.87;;;6.40;99.90;;;;;;6671113;89;20365;-77
2021/04/20 01:24:03;;;;;;;39.28;19.42;;;6.40;99.90;;;;;;6682178;88;20184;-78
2021/04/20 01:34:05;;;;;;;40.05;20.15;;;6.30;99.90;;;;;;6673243;87;20712;-77
2021/04/20 01:44:06;;;;;;;40.30;19.87;;;6.40;99.90;;;;;;6688533;88;20204;-77
2021/04/20 01:54:07;;;;;;;40.83;20.40;;;6.20;99.90;;;;;;6673758;89;20281;-79
2021/04/20 02:04:08;;;;;;;45.10;20.53;;;6.00;99.90;;;;;;6666593;89;21087;-79
2021/04/20 02:14:09;;;;;;;44.95;20.80;;;5.90;99.90;;;;;;6670690;89;20652;-77
2021/04/20 02:24:13;;;;;;;41.33;20.60;;;5.70;99.90;;;;;;6691348;88;20199;-76
2021/04/20 02:34:13;;;;;;;43.65;20.85;;;5.60;99.90;;;;;;6678119;89;20191;-79
2021/04/20 02:44:15;;;;;;;45.17;20.77;;;5.60;99.90;;;;;;6672701;87;20743;-77
2021/04/20 02:54:16;;;;;;;40.78;20.12;;;5.50;99.90;;;;;;6678067;88;20183;-77
2021/04/20 03:04:17;;;;;;;42.95;20.85;;;5.30;99.90;;;;;;6674475;89;20686;-77
2021/04/20 03:14:18;;;;;;;47.20;20.73;;;5.30;99.90;;;;;;6685913;88;20190;-77
2021/04/20 03:24:58;;;;;;;45.58;22.25;;;5.30;99.90;;;;;;6673535;89;20203;-78
2021/04/20 03:35:11;;;;;;;47.40;21.05;;;5.20;99.90;;;;;;6684321;88;20195;-78
2021/04/20 03:45:17;;;;;;;44.78;20.73;;;5.20;99.90;;;;;;6687345;88;20187;-77
2021/04/20 03:55:20;;;;;;;44.08;21.83;;;5.20;99.90;;;;;;6674768;89;20233;-78
2021/04/20 04:05:25;;;;;;;45.85;21.40;;;5.10;99.90;;;;;;6673625;89;20652;-78
2021/04/20 04:15:26;;;;;;;46.28;21.42;;;5.00;99.90;;;;;;6670383;88;20200;-77
2021/04/20 04:25:33;;;;;;;45.50;20.95;;;5.10;99.90;;;;;;6657762;89;20222;-76
2021/04/20 04:35:35;;;;;;;48.55;22.75;;;4.90;99.90;;;;;;6676978;88;20214;-77
2021/04/20 04:45:36;;;;;;;47.90;21.80;;;4.60;99.90;;;;;;6717748;87;20274;-77
2021/04/20 04:55:37;;;;;;;47.75;21.77;;;4.60;99.90;;;;;;6715838;88;20216;-77
2021/04/20 05:05:39;;;;;;;43.70;20.92;;;4.50;99.90;;;;;;6668540;89;20218;-77
2021/04/20 05:15:40;;;;;;;43.28;20.52;;;4.70;99.90;;;;;;6663986;89;20308;-77
2021/04/20 05:25:40;;;;;;;40.78;19.65;;;4.60;99.90;;;;;;6663714;89;20643;-78
2021/04/20 05:35:44;;;;;;;43.72;19.75;;;4.60;99.90;;;;;;6674154;89;20324;-77
2021/04/20 05:45:45;;;;;;;42.72;20.15;;;4.80;99.90;;;;;;6674307;88;20614;-77
2021/04/20 05:55:45;;;;;;;44.72;19.35;;;5.10;99.90;;;;;;6660907;89;20278;-78
2021/04/20 06:05:46;;;;;;;45.85;20.33;;;5.40;99.90;;;;;;6655600;89;20199;-77
2021/04/20 06:15:47;;;;;;;45.97;20.80;;;5.60;99.90;;;;;;6654411;89;20238;-77
2021/04/20 06:25:48;;;;;;;45.20;20.40;;;5.90;99.90;;;;;;6658507;89;20199;-76
2021/04/20 06:35:49;;;;;;;39.55;19.08;;;6.60;99.90;;;;;;6669072;89;20222;-78
2021/04/20 06:46:09;;;;;;;39.92;19.58;;;6.80;99.90;;;;;;6670414;89;20272;-76
2021/04/20 06:56:27;;;;;;;36.75;18.08;;;7.40;99.90;;;;;;6683407;88;20187;-77
2021/04/20 07:06:32;;;;;;;33.45;17.83;;;7.90;99.90;;;;;;6669638;89;20251;-77
2021/04/20 07:16:50;;;;;;;34.75;17.65;;;8.70;99.90;;;;;;6667829;89;20214;-77
2021/04/20 07:27:15;;;;;;;35.05;16.55;;;9.30;99.90;;;;;;6653724;89;20211;-77
2021/04/20 07:37:48;;;;;;;27.65;14.93;;;9.80;99.90;;;;;;6663903;89;20247;-77
2021/04/20 07:47:59;;;;;;;33.33;15.93;;;10.60;99.90;;;;;;6672652;87;20227;-77
2021/04/20 07:58:06;;;;;;;28.08;14.82;;;11.30;99.90;;;;;;6673145;89;20267;-77
2021/04/20 08:08:14;;;;;;;26.70;14.75;;;12.00;99.90;;;;;;6680987;88;20683;-77
2021/04/20 08:18:21;;;;;;;24.48;13.27;;;12.60;99.90;;;;;;6695555;88;20225;-76
2021/04/20 08:28:51;;;;;;;25.50;14.35;;;13.90;99.90;;;;;;6665160;89;20269;-77
2021/04/20 08:39:23;;;;;;;29.77;13.13;;;14.50;99.90;;;;;;6669910;88;20202;-78
2021/04/20 08:49:51;;;;;;;20.58;11.55;;;15.10;99.90;;;;;;6682794;87;20697;-77
2021/04/20 09:00:10;;;;;;;15.23;10.18;;;16.00;99.90;;;;;;6731488;87;20175;-78
2021/04/20 09:10:26;;;;;;;16.60;9.50;;;16.10;99.90;;;;;;6684596;89;20636;-78
2021/04/20 09:20:38;;;;;;;20.23;9.88;;;17.40;99.90;;;;;;6688209;89;20183;-77
2021/04/20 09:30:52;;;;;;;12.25;8.15;;;18.00;99.10;;;;;;6691361;89;20676;-77
2021/04/20 09:40:54;;;;;;;11.60;7.47;;;18.90;97.40;;;;;;6676113;89;20184;-78
2021/04/20 09:51:14;;;;;;;8.82;6.07;;;19.80;92.20;;;;;;6672866;88;20296;-76
2021/04/20 10:01:46;;;;;;;7.78;4.72;;;20.40;81.60;;;;;;6675514;89;20197;-77
2021/04/20 10:12:04;;;;;;;7.07;4.45;;;20.30;81.50;;;;;;6675779;89;20226;-78
2021/04/20 10:22:27;;;;;;;5.53;4.60;;;21.50;77.40;;;;;;6667517;89;20213;-78
2021/04/20 10:32:35;;;;;;;7.87;5.40;;;21.90;68.80;;;;;;6675342;89;20198;-78
2021/04/20 10:42:37;;;;;;;7.78;4.82;;;23.00;68.10;;;;;;6673698;89;20264;-78
2021/04/20 10:52:39;;;;;;;10.25;6.20;;;22.90;65.00;;;;;;6675323;88;20829;-78
2021/04/20 11:02:46;;;;;;;7.82;5.53;;;22.90;65.40;;;;;;6681786;88;20204;-79
2021/04/20 11:12:48;;;;;;;5.43;4.12;;;23.80;63.90;;;;;;6699676;88;20241;-78
2021/04/20 11:22:51;;;;;;;5.22;3.87;;;23.80;59.50;;;;;;6687084;88;20177;-78
2021/04/20 11:32:53;;;;;;;4.73;3.33;;;24.20;56.80;;;;;;6681079;89;20195;-79
2021/04/20 11:42:56;;;;;;;4.45;2.95;;;25.40;53.80;;;;;;6690536;88;20673;-78
2021/04/20 11:53:04;;;;;;;5.87;3.60;;;23.90;55.20;;;;;;6661801;88;20293;-77
2021/04/20 12:03:17;;;;;;;5.47;3.70;;;24.50;54.10;;;;;;6659875;89;20210;-77
2021/04/20 12:13:28;;;;;;;6.68;3.90;;;24.90;54.60;;;;;;6666138;88;20227;-77
2021/04/20 12:23:30;;;;;;;5.45;3.70;;;24.10;52.50;;;;;;6665820;89;20332;-77
2021/04/20 12:33:33;;;;;;;6.40;4.20;;;24.90;51.60;;;;;;6666398;88;20254;-76
2021/04/20 12:43:38;;;;;;;5.75;4.07;;;24.90;52.20;;;;;;6653586;88;20229;-77
2021/04/20 12:53:44;;;;;;;5.95;4.32;;;24.60;51.00;;;;;;6668178;88;20333;-77
2021/04/20 13:03:45;;;;;;;7.20;3.83;;;22.90;53.10;;;;;;6662488;88;20199;-77
2021/04/20 13:13:49;;;;;;;11.65;4.20;;;21.80;56.10;;;;;;6664431;89;20184;-77
2021/04/20 13:23:52;;;;;;;5.87;4.10;;;22.40;56.50;;;;;;6664615;89;20183;-77
2021/04/20 13:34:02;;;;;;;7.55;3.85;;;22.20;54.20;;;;;;6665369;89;20354;-77
2021/04/20 13:44:06;;;;;;;7.32;4.30;;;22.20;54.90;;;;;;6665668;89;20278;-77
2021/04/20 13:54:08;;;;;;;6.95;4.35;;;23.50;51.80;;;;;;6688396;88;20598;-78
2021/04/20 14:04:18;;;;;;;7.87;4.33;;;25.00;51.40;;;;;;6696254;89;20303;-78
2021/04/20 14:14:33;;;;;;;6.05;4.10;;;24.40;50.20;;;;;;6696026;89;20500;-78
2021/04/20 14:24:36;;;;;;;5.70;4.15;;;23.50;51.20;;;;;;6679675;89;20198;-78
2021/04/20 14:34:40;;;;;;;6.20;4.12;;;22.80;52.20;;;;;;6685980;88;20567;-78
2021/04/20 14:44:42;;;;;;;6.57;4.20;;;22.40;53.70;;;;;;6720789;87;20195;-78
2021/04/20 14:54:55;;;;;;;5.95;3.80;;;22.00;52.70;;;;;;6689956;88;20218;-79
2021/04/20 15:04:56;;;;;;;6.10;4.40;;;22.90;52.30;;;;;;6690418;89;20191;-78
2021/04/20 15:15:23;;;;;;;8.13;4.60;;;24.10;50.50;;;;;;6686210;89;20191;-78
2021/04/20 15:25:29;;;;;;;5.80;3.83;;;23.90;50.20;;;;;;6690379;88;20274;-79
2021/04/20 15:35:35;;;;;;;5.07;3.60;;;23.30;50.50;;;;;;6688011;88;20203;-78
2021/04/20 15:45:40;;;;;;;5.95;3.92;;;22.00;53.40;;;;;;6684844;87;20202;-78
2021/04/20 15:55:43;;;;;;;5.45;3.95;;;21.70;53.30;;;;;;6690102;88;20211;-79
2021/04/20 16:05:44;;;;;;;7.40;5.03;;;21.30;54.80;;;;;;6702917;87;20642;-79
2021/04/20 16:15:47;;;;;;;8.85;4.55;;;20.50;55.40;;;;;;6780150;87;20336;-78
2021/04/20 16:25:49;;;;;;;7.40;4.78;;;20.40;55.80;;;;;;6708001;87;20226;-78
2021/04/20 16:35:52;;;;;;;8.57;5.35;;;19.80;56.50;;;;;;6687865;89;20696;-78
2021/04/20 16:45:52;;;;;;;12.85;7.18;;;19.50;58.00;;;;;;6699903;87;20199;-79
2021/04/20 16:56:28;;;;;;;10.27;6.30;;;19.20;59.20;;;;;;6675691;88;20211;-78
2021/04/20 17:06:54;;;;;;;8.47;5.90;;;18.70;60.20;;;;;;6680872;88;20769;-78
2021/04/20 17:17:27;;;;;;;10.30;6.85;;;18.50;60.50;;;;;;6685794;88;20218;-80
2021/04/20 17:27:33;;;;;;;9.73;7.15;;;18.30;60.80;;;;;;6685816;88;20727;-80
2021/04/20 17:38:03;;;;;;;9.45;6.40;;;18.30;60.70;;;;;;6666444;89;20172;-79
2021/04/20 17:48:25;;;;;;;12.52;6.75;;;17.80;62.60;;;;;;6661155;88;20198;-79
2021/04/20 17:59:13;;;;;;;12.30;8.43;;;17.20;63.50;;;;;;6672574;89;20185;-78
2021/04/20 18:09:19;;;;;;;14.02;8.32;;;16.80;65.40;;;;;;6672549;89;20198;-78
2021/04/20 18:19:40;;;;;;;13.32;8.68;;;16.50;67.30;;;;;;6684608;88;20187;-78
2021/04/20 18:30:13;;;;;;;15.05;7.87;;;16.20;68.50;;;;;;6687747;88;20737;-78
2021/04/20 18:40:28;;;;;;;13.75;8.50;;;15.70;69.40;;;;;;6678893;89;20670;-77
2021/04/20 18:50:45;;;;;;;16.03;9.37;;;15.50;71.10;;;;;;6662677;89;20219;-79
2021/04/20 19:00:54;;;;;;;14.93;8.95;;;15.10;73.00;;;;;;6662132;89;20206;-77
2021/04/20 19:11:31;;;;;;;16.05;9.77;;;14.90;76.10;;;;;;6688131;88;20189;-78
2021/04/20 19:21:55;;;;;;;18.55;10.30;;;14.50;79.50;;;;;;6649991;89;20275;-79
2021/04/20 19:32:22;;;;;;;19.37;11.07;;;14.20;85.90;;;;;;6655990;89;20227;-77
2021/04/20 19:42:30;;;;;;;19.92;12.43;;;14.00;91.10;;;;;;6652635;89;20190;-77
2021/04/20 19:52:44;;;;;;;20.10;12.27;;;13.80;93.00;;;;;;6652453;88;20219;-77
2021/04/20 20:02:46;;;;;;;21.45;12.85;;;13.60;95.40;;;;;;6652964;89;20771;-77
2021/04/20 20:12:49;;;;;;;24.30;13.50;;;13.40;96.70;;;;;;6654035;89;20168;-78
2021/04/20 20:22:53;;;;;;;23.17;12.90;;;13.30;98.20;;;;;;6670403;88;20239;-77
2021/04/20 20:32:54;;;;;;;20.95;12.88;;;13.20;99.90;;;;;;6663455;89;20237;-77
2021/04/20 20:43:03;;;;;;;18.65;11.70;;;13.00;99.90;;;;;;6666482;89;20184;-77
2021/04/20 20:53:04;;;;;;;19.75;10.95;;;13.00;99.90;;;;;;6678382;88;20239;-77
2021/04/20 21:03:08;;;;;;;14.90;10.00;;;12.50;99.90;;;;;;6686555;89;20225;-81
2021/04/20 21:13:24;;;;;;;16.23;8.88;;;12.50;99.90;;;;;;6682664;89;20381;-77
2021/04/20 21:23:28;;;;;;;14.77;9.13;;;12.20;99.90;;;;;;6686309;89;20238;-80
2021/04/20 21:33:35;;;;;;;15.95;9.65;;;12.20;99.90;;;;;;6698611;89;20229;-80
2021/04/20 21:43:51;;;;;;;15.98;8.90;;;11.90;99.90;;;;;;6698219;89;20204;-79
2021/04/20 21:53:56;;;;;;;17.15;9.90;;;11.70;99.90;;;;;;6699625;88;20232;-79
2021/04/20 22:04:01;;;;;;;18.73;10.32;;;11.40;99.90;;;;;;6702165;88;20163;-80
2021/04/20 22:14:04;;;;;;;17.50;11.13;;;11.20;99.90;;;;;;6704186;88;20221;-79
2021/04/20 22:24:14;;;;;;;20.98;11.40;;;10.90;99.90;;;;;;6703103;89;20508;-78
2021/04/20 22:34:27;;;;;;;16.65;10.70;;;10.90;99.90;;;;;;6695767;88;20268;-78
2021/04/20 22:44:28;;;;;;;14.38;10.02;;;10.70;99.90;;;;;;6698836;89;20329;-78
2021/04/20 22:54:32;;;;;;;18.35;11.90;;;10.40;99.90;;;;;;6696721;88;20274;-78
2021/04/20 23:04:35;;;;;;;21.58;13.13;;;10.30;99.90;;;;;;6689466;87;20188;-78
2021/04/20 23:14:41;;;;;;;17.83;12.30;;;10.30;99.90;;;;;;6714245;87;20533;-78
2021/04/20 23:24:56;;;;;;;21.47;12.43;;;10.00;99.90;;;;;;6672720;89;20641;-77
2021/04/20 23:34:59;;;;;;;21.65;13.20;;;9.80;99.90;;;;;;6672895;89;20196;-78
2021/04/20 23:45:02;;;;;;;22.60;13.57;;;9.60;99.90;;;;;;6674285;89;20280;-77
2021/04/20 23:55:05;;;;;;;23.35;14.30;;;9.30;99.90;;;;;;6685627;89;20187;-78
